Judi M. — WCX8376 — position and weather

sailwx.info

Track history (hours):
 
Tides and Currents Weather Stations Pressure Air Temp Water Temp Dewpoint Dewpoint Depression Visibility Wind Speed Wind Dir Waves Ship Positions

Judi M.

Owner: MANKE TUG & BARGE CO INC, SHELTON, WA. More information available from US FCC via Universal Licensing System and Coast Guard Vessel Documentation Center.

Last reported at 2017-Mar-20 06:14 UTC. Time now 2017-Mar-23 12:31 UTC.
Position N 47°34' W 122°22'.

Length 21 m; draft 4 m.

Type: Tow > 200 m length. MMSI: 366740920.

Date/timePositionNaut miles runAvg speedWind from/ knotsBaromVisibWave heightAir tempDewpointWater temp
2017-Mar-20 06:14N 47°34' W 122°22'1 1.8
2017-Mar-20 05:34N 47°36' W 122°22'6 6.0
2017-Mar-20 04:33N 47°40' W 122°28'7 7.4
2017-Mar-20 03:33N 47°47' W 122°27'7 6.9
2017-Mar-20 02:33N 47°54' W 122°30'7 6.7
2017-Mar-20 01:33N 47°59' W 122°37'9 0.7
2017-Mar-19 12:11N 48°06' W 122°45'4 6.0
2017-Mar-19 11:26N 48°05' W 122°39'8 8.7
2017-Mar-19 10:34N 47°58' W 122°34'8 7.7
2017-Mar-19 09:34N 47°52' W 122°28'7 7.3
2017-Mar-19 08:34N 47°44' W 122°26'7 7.3
2017-Mar-19 07:34N 47°37' W 122°24'3 3.3
2017-Mar-19 06:34N 47°34' W 122°22'  
2017-Mar-15 16:23N 47°34' W 122°22'1 1.4
2017-Mar-15 15:33N 47°36' W 122°22'4 3.7
2017-Mar-15 14:33N 47°38' W 122°26'4 4.1
2017-Mar-15 13:33N 47°42' W 122°28'4 3.5
2017-Mar-15 12:33N 47°45' W 122°27'6 5.9
2017-Mar-15 11:33N 47°51' W 122°29'8 7.7
2017-Mar-15 10:33N 47°57' W 122°35'8 7.2
2017-Mar-15 09:25N 48°05' W 122°40'7 7.6
2017-Mar-15 08:31N 48°10' W 122°47'6 6.1
2017-Mar-15 07:33N 48°14' W 122°54'7 5.9
2017-Mar-15 06:25N 48°19' W 122°59'6 7.0
2017-Mar-15 05:33N 48°25' W 123°04'7 7.3
2017-Mar-15 04:33N 48°30' W 123°11'8 7.7
2017-Mar-15 03:33N 48°37' W 123°15'7 7.0
2017-Mar-15 02:33N 48°44' W 123°18'7 6.8
2017-Mar-15 01:31N 48°51' W 123°22'6 6.5
2017-Mar-15 00:33N 48°54' W 123°30'5 4.7
2017-Mar-14 23:33N 48°56' W 123°36'4 3.6
2017-Mar-14 22:33N 48°52' W 123°39'0 0.0
2017-Mar-14 21:33N 48°52' W 123°39'0 0.0
2017-Mar-14 20:33N 48°52' W 123°39'0 0.0
2017-Mar-14 19:33N 48°52' W 123°39'0 0.0
2017-Mar-14 18:33N 48°52' W 123°39'0 0.0
2017-Mar-14 17:33N 48°52' W 123°39'0 0.0
2017-Mar-14 16:33N 48°52' W 123°39'0 0.0
2017-Mar-14 15:33N 48°52' W 123°39'0 0.0
2017-Mar-14 14:31N 48°52' W 123°39'0 0.0
2017-Mar-14 13:31N 48°52' W 123°39'0 0.0
2017-Mar-14 12:33N 48°52' W 123°39'4 3.8
2017-Mar-14 11:33N 48°56' W 123°36'5 4.6
2017-Mar-14 10:33N 48°54' W 123°30'6 6.0
2017-Mar-14 09:33N 48°51' W 123°22'6 6.5
2017-Mar-14 08:33N 48°45' W 123°18'7 6.8
2017-Mar-14 07:33N 48°39' W 123°14'6 6.3
2017-Mar-14 06:33N 48°33' W 123°11'7 6.6
2017-Mar-14 05:33N 48°27' W 123°06'8 7.8
2017-Mar-14 04:33N 48°21' W 122°59'9 8.9
2017-Mar-14 03:33N 48°14' W 122°51'17 8.6
2017-Mar-14 01:33N 48°00' W 122°36'8 7.9
2017-Mar-14 00:33N 47°54' W 122°28'8 8.0
2017-Mar-13 23:33N 47°46' W 122°26'8 7.8
2017-Mar-13 22:33N 47°38' W 122°26'5 0.1
2017-Mar-12 12:33N 47°34' W 122°22'1 1.5
2017-Mar-12 11:33N 47°36' W 122°23'6 5.8
2017-Mar-12 10:33N 47°40' W 122°28'6 5.9
2017-Mar-12 09:33N 47°46' W 122°27'6 6.5
2017-Mar-12 08:33N 47°52' W 122°29'7 6.3
2017-Mar-12 07:31N 47°57' W 122°35'10 4.7
2017-Mar-12 05:18N 48°06' W 122°43'3 0.5
2017-Mar-11 23:04N 48°05' W 122°48'9 0.6
2017-Mar-11 09:30N 48°01' W 122°36'4 4.8
2017-Mar-11 08:33N 47°58' W 122°33'6 6.1
2017-Mar-11 07:33N 47°52' W 122°28'8 7.8
2017-Mar-11 06:33N 47°45' W 122°26'7 7.3
2017-Mar-11 05:33N 47°38' W 122°25'4 4.0
2017-Mar-11 04:33N 47°34' W 122°22'  
Track history (hours):
 
Tides and Currents Weather Stations Pressure Air Temp Water Temp Dewpoint Dewpoint Depression Visibility Wind Speed Wind Dir Waves Ship Positions

Judi M.

Owner: MANKE TUG & BARGE CO INC, SHELTON, WA. More information available from US FCC via Universal Licensing System and Coast Guard Vessel Documentation Center.

Last reported at 2017-Mar-20 06:14 UTC. Time now 2017-Mar-23 12:31 UTC.
Position N 47°34' W 122°22'.

Length 21 m; draft 4 m.

Type: Tow > 200 m length. MMSI: 366740920.

Date/timePositionNaut miles runAvg speedWind from/ knotsBaromVisibWave heightAir tempDewpointWater temp
2017-Mar-20 06:14N 47°34' W 122°22'1 1.8
2017-Mar-20 05:34N 47°36' W 122°22'6 6.0
2017-Mar-20 04:33N 47°40' W 122°28'7 7.4
2017-Mar-20 03:33N 47°47' W 122°27'7 6.9
2017-Mar-20 02:33N 47°54' W 122°30'7 6.7
2017-Mar-20 01:33N 47°59' W 122°37'9 0.7
2017-Mar-19 12:11N 48°06' W 122°45'4 6.0
2017-Mar-19 11:26N 48°05' W 122°39'8 8.7
2017-Mar-19 10:34N 47°58' W 122°34'8 7.7
2017-Mar-19 09:34N 47°52' W 122°28'7 7.3
2017-Mar-19 08:34N 47°44' W 122°26'7 7.3
2017-Mar-19 07:34N 47°37' W 122°24'3 3.3
2017-Mar-19 06:34N 47°34' W 122°22'  
2017-Mar-15 16:23N 47°34' W 122°22'1 1.4
2017-Mar-15 15:33N 47°36' W 122°22'4 3.7
2017-Mar-15 14:33N 47°38' W 122°26'4 4.1
2017-Mar-15 13:33N 47°42' W 122°28'4 3.5
2017-Mar-15 12:33N 47°45' W 122°27'6 5.9
2017-Mar-15 11:33N 47°51' W 122°29'8 7.7
2017-Mar-15 10:33N 47°57' W 122°35'8 7.2
2017-Mar-15 09:25N 48°05' W 122°40'7 7.6
2017-Mar-15 08:31N 48°10' W 122°47'6 6.1
2017-Mar-15 07:33N 48°14' W 122°54'7 5.9
2017-Mar-15 06:25N 48°19' W 122°59'6 7.0
2017-Mar-15 05:33N 48°25' W 123°04'7 7.3
2017-Mar-15 04:33N 48°30' W 123°11'8 7.7
2017-Mar-15 03:33N 48°37' W 123°15'7 7.0
2017-Mar-15 02:33N 48°44' W 123°18'7 6.8
2017-Mar-15 01:31N 48°51' W 123°22'6 6.5
2017-Mar-15 00:33N 48°54' W 123°30'5 4.7
2017-Mar-14 23:33N 48°56' W 123°36'4 3.6
2017-Mar-14 22:33N 48°52' W 123°39'0 0.0
2017-Mar-14 21:33N 48°52' W 123°39'0 0.0
2017-Mar-14 20:33N 48°52' W 123°39'0 0.0
2017-Mar-14 19:33N 48°52' W 123°39'0 0.0
2017-Mar-14 18:33N 48°52' W 123°39'0 0.0
2017-Mar-14 17:33N 48°52' W 123°39'0 0.0
2017-Mar-14 16:33N 48°52' W 123°39'0 0.0
2017-Mar-14 15:33N 48°52' W 123°39'0 0.0
2017-Mar-14 14:31N 48°52' W 123°39'0 0.0
2017-Mar-14 13:31N 48°52' W 123°39'0 0.0
2017-Mar-14 12:33N 48°52' W 123°39'4 3.8
2017-Mar-14 11:33N 48°56' W 123°36'5 4.6
2017-Mar-14 10:33N 48°54' W 123°30'6 6.0
2017-Mar-14 09:33N 48°51' W 123°22'6 6.5
2017-Mar-14 08:33N 48°45' W 123°18'7 6.8
2017-Mar-14 07:33N 48°39' W 123°14'6 6.3
2017-Mar-14 06:33N 48°33' W 123°11'7 6.6
2017-Mar-14 05:33N 48°27' W 123°06'8 7.8
2017-Mar-14 04:33N 48°21' W 122°59'9 8.9
2017-Mar-14 03:33N 48°14' W 122°51'17 8.6
2017-Mar-14 01:33N 48°00' W 122°36'8 7.9
2017-Mar-14 00:33N 47°54' W 122°28'8 8.0
2017-Mar-13 23:33N 47°46' W 122°26'8 7.8
2017-Mar-13 22:33N 47°38' W 122°26'5 0.1
2017-Mar-12 12:33N 47°34' W 122°22'1 1.5
2017-Mar-12 11:33N 47°36' W 122°23'6 5.8
2017-Mar-12 10:33N 47°40' W 122°28'6 5.9
2017-Mar-12 09:33N 47°46' W 122°27'6 6.5
2017-Mar-12 08:33N 47°52' W 122°29'7 6.3
2017-Mar-12 07:31N 47°57' W 122°35'10 4.7
2017-Mar-12 05:18N 48°06' W 122°43'3 0.5
2017-Mar-11 23:04N 48°05' W 122°48'9 0.6
2017-Mar-11 09:30N 48°01' W 122°36'4 4.8
2017-Mar-11 08:33N 47°58' W 122°33'6 6.1
2017-Mar-11 07:33N 47°52' W 122°28'8 7.8
2017-Mar-11 06:33N 47°45' W 122°26'7 7.3
2017-Mar-11 05:33N 47°38' W 122°25'4 4.0
2017-Mar-11 04:33N 47°34' W 122°22'  

Dump ship's entire track history